Kalam Weather



Kalam's Current Weather

Temprature 6.83o scattered clouds

scattered clouds

Rain: 0 %

Min Temprature6.83o
Max Temprature6.83o
Humidity53
Wind Speed1.42 m/h
Sun Rise06:27:36
Sun Set17:19:06
Current Time: 28-Oct-2020 07:21:38
Lat/Lon: 35.48, 72.58




Kalam's Geo Location



Kalam's Weather Forecast

Time Overall Temp Min Temp Max Temp Humidity Wind Speed Rain
28-Oct-2020 (Wed)
08:00:00 scattered clouds 7.920 7.920 9.960 49 0.9 m/h 0 %
11:00:00 scattered clouds 12.370 12.370 14.130 36 3.04 m/h 0 %
14:00:00 overcast clouds 13.710 13.710 14.240 33 4.57 m/h 0 %
17:00:00 broken clouds 9.470 9.470 9.500 45 3.02 m/h 0 %
20:00:00 scattered clouds 5.920 5.920 5.920 57 1.27 m/h 0 %
23:00:00 broken clouds 6.190 6.190 6.190 56 0.93 m/h 0 %
29-Oct-2020 (Thu)
02:00:00 overcast clouds 6.370 6.370 6.370 55 0.53 m/h 0 %
05:00:00 overcast clouds 5.370 5.370 5.370 58 1.04 m/h 0 %
08:00:00 broken clouds 8.190 8.190 8.190 47 0.88 m/h 0 %
11:00:00 broken clouds 11.730 11.730 11.730 36 2.71 m/h 0 %
14:00:00 overcast clouds 11.270 11.270 11.270 40 3.17 m/h 0 %
17:00:00 overcast clouds 7.080 7.080 7.080 57 1.46 m/h 0 %
20:00:00 broken clouds 4.110 4.110 4.110 67 2.46 m/h 0 %
23:00:00 broken clouds 3.320 3.320 3.320 64 2.32 m/h 0 %
30-Oct-2020 (Fri)
02:00:00 clear sky 3.170 3.170 3.170 61 2.85 m/h 0 %
05:00:00 clear sky 2.940 2.940 2.940 60 3.17 m/h 0 %
08:00:00 clear sky 6.150 6.150 6.150 50 2.81 m/h 0 %
11:00:00 clear sky 10.820 10.820 10.820 36 1.48 m/h 0 %
14:00:00 scattered clouds 11.610 11.610 11.610 33 1.17 m/h 0 %
17:00:00 broken clouds 6.980 6.980 6.980 49 0.9 m/h 0 %
20:00:00 few clouds 4.370 4.370 4.370 55 3.24 m/h 0 %
23:00:00 few clouds 3.740 3.740 3.740 55 3.34 m/h 0 %
31-Oct-2020 (Sat)
02:00:00 clear sky 3.250 3.250 3.250 56 3.7 m/h 0 %
05:00:00 clear sky 2.780 2.780 2.780 54 3.66 m/h 0 %
08:00:00 clear sky 6.270 6.270 6.270 41 3.15 m/h 0 %
11:00:00 clear sky 11.830 11.830 11.830 29 1.51 m/h 0 %
14:00:00 clear sky 12.910 12.910 12.910 28 1.2 m/h 0 %
17:00:00 clear sky 7.420 7.420 7.420 44 2.04 m/h 0 %
20:00:00 clear sky 4.570 4.570 4.570 50 3.48 m/h 0 %
23:00:00 clear sky 4.030 4.030 4.030 48 3.53 m/h 0 %
01-Nov-2020 (Sun)
02:00:00 clear sky 3.690 3.690 3.690 48 3.58 m/h 0 %
05:00:00 clear sky 3.460 3.460 3.460 45 3.63 m/h 0 %
08:00:00 clear sky 7.260 7.260 7.260 34 3.16 m/h 0 %
11:00:00 clear sky 13.100 13.100 13.100 26 1.31 m/h 0 %
14:00:00 clear sky 14.070 14.070 14.070 26 1.2 m/h 0 %
17:00:00 clear sky 8.100 8.100 8.100 41 2.03 m/h 0 %
20:00:00 clear sky 5.160 5.160 5.160 46 3.36 m/h 0 %
23:00:00 clear sky 4.760 4.760 4.760 44 3.33 m/h 0 %
02-Nov-2020 (Mon)
02:00:00 clear sky 4.660 4.660 4.660 44 3.19 m/h 0 %
05:00:00 clear sky 4.530 4.530 4.530 41 3.03 m/h 0 %

Famous Cities (60)